Time;durP1;ratioP1;P1;durP2;ratioP2;P2;SDS_P1;SDS_P2;PMS_P1;PMS_P2;Temp;Humidity;BMP_temperature;BMP_pressure;BME280_temperature;BME280_humidity;BME280_pressure;Samples;Min_cycle;Max_cycle;Signal;HPM_P1;HPM_P2
2022/09/22 00:01:35;;;;;;;0.80;0.80;;;;;;;13.64;52.08;97042.19;5090570;28;20692;-81
2022/09/22 00:04:07;;;;;;;1.10;1.00;;;;;;;13.91;52.13;97066.59;5108277;28;20271;-77
2022/09/22 00:06:37;;;;;;;0.93;0.70;;;;;;;13.81;52.74;97073.25;5111151;28;20187;-76
2022/09/22 00:09:07;;;;;;;0.90;0.80;;;;;;;13.69;53.08;97067.00;5091677;28;20668;-75
2022/09/22 00:11:45;;;;;;;1.03;0.93;;;;;;;13.67;53.48;97062.81;5073204;28;20205;-77
2022/09/22 00:14:21;;;;;;;1.17;1.07;;;;;;;13.68;53.14;97065.31;5108441;28;20227;-79
2022/09/22 00:16:57;;;;;;;2.23;0.80;;;;;;;13.76;53.68;97062.28;5108065;28;20204;-79
2022/09/22 00:19:33;;;;;;;1.20;1.10;;;;;;;13.84;54.76;97070.50;5089668;28;20247;-77
2022/09/22 00:22:00;;;;;;;1.37;1.23;;;;;;;13.80;55.53;97074.19;5107849;28;20183;-80
2022/09/22 00:24:28;;;;;;;1.20;0.93;;;;;;;13.70;55.94;97062.66;5089665;28;20194;-80
2022/09/22 00:26:56;;;;;;;1.20;1.00;;;;;;;13.59;55.93;97036.41;5108497;28;20188;-78
2022/09/22 00:29:25;;;;;;;1.00;1.00;;;;;;;13.67;56.82;97062.81;5107823;28;20199;-80
2022/09/22 00:31:53;;;;;;;1.73;1.30;;;;;;;13.64;56.13;97057.78;5108019;28;20186;-78
2022/09/22 00:34:23;;;;;;;1.03;0.90;;;;;;;13.55;57.19;97053.09;5107709;28;20177;-78
2022/09/22 00:36:50;;;;;;;1.30;1.10;;;;;;;13.50;57.27;97060.31;5107832;28;20191;-77
2022/09/22 00:39:17;;;;;;;1.00;0.90;;;;;;;13.57;56.69;97061.66;5107669;28;20778;-79
2022/09/22 00:41:48;;;;;;;1.23;0.90;;;;;;;13.53;55.74;97058.41;5106786;28;20313;-80
2022/09/22 00:44:15;;;;;;;1.10;0.93;;;;;;;13.57;55.37;97062.50;5089539;28;20187;-78
2022/09/22 00:46:44;;;;;;;1.40;1.07;;;;;;;13.52;55.10;97053.28;5089351;28;20191;-79
2022/09/22 00:49:13;;;;;;;1.23;0.90;;;;;;;13.47;55.41;97055.31;5107790;28;20735;-80
2022/09/22 00:51:43;;;;;;;0.90;0.90;;;;;;;13.49;54.84;97051.72;5107966;28;20737;-80
2022/09/22 00:54:15;;;;;;;1.00;1.00;;;;;;;13.35;55.05;97050.81;5089314;28;20271;-77
2022/09/22 00:57:09;;;;;;;0.83;0.83;;;;;;;13.29;55.83;97051.16;5107805;28;20199;-79
2022/09/22 00:59:37;;;;;;;1.97;1.10;;;;;;;13.18;55.74;97053.50;5107535;28;20312;-80
2022/09/22 01:02:04;;;;;;;0.90;0.90;;;;;;;13.24;55.78;97045.34;5107710;28;20194;-77
2022/09/22 01:04:31;;;;;;;1.10;1.00;;;;;;;13.33;55.97;97050.91;5107812;28;20737;-80
2022/09/22 01:06:59;;;;;;;0.97;0.97;;;;;;;13.35;55.96;97041.25;5107852;28;20188;-77
2022/09/22 01:09:28;;;;;;;1.10;1.00;;;;;;;13.41;56.46;97042.66;5107389;28;20196;-76
2022/09/22 01:11:55;;;;;;;1.93;1.13;;;;;;;13.36;56.02;97039.47;5107395;28;20193;-79
2022/09/22 01:14:34;;;;;;;0.90;0.90;;;;;;;13.38;56.88;97048.00;5113682;28;20187;-79
2022/09/22 01:17:21;;;;;;;1.20;0.90;;;;;;;13.26;57.55;97046.97;5119202;28;20270;-79
2022/09/22 01:20:25;;;;;;;1.43;0.97;;;;;;;13.14;57.75;97049.41;5115636;28;20222;-80
2022/09/22 01:23:26;;;;;;;0.80;0.80;;;;;;;13.13;57.92;97045.16;5090820;28;20192;-79
2022/09/22 01:26:20;;;;;;;1.37;0.90;;;;;;;13.03;58.68;97050.81;5109565;28;20738;-77
2022/09/22 01:29:02;;;;;;;2.20;1.20;;;;;;;13.04;58.42;97057.69;5106974;28;20197;-77
2022/09/22 01:31:52;;;;;;;1.77;1.17;;;;;;;13.06;58.88;97050.66;5107040;28;20194;-78
2022/09/22 01:34:40;;;;;;;1.40;1.00;;;;;;;12.98;59.56;97049.41;5094134;28;20289;-78
2022/09/22 01:37:23;;;;;;;1.30;1.20;;;;;;;12.91;59.64;97046.28;5107285;28;20272;-77
2022/09/22 01:40:03;;;;;;;1.20;1.00;;;;;;;12.85;59.95;97032.78;5092936;28;20238;-82
2022/09/22 01:42:43;;;;;;;4.00;1.43;;;;;;;12.75;59.74;97022.06;5089814;28;20223;-82
2022/09/22 01:45:18;;;;;;;1.10;1.00;;;;;;;12.91;60.32;97048.88;5108711;28;20198;-79
2022/09/22 01:47:52;;;;;;;1.10;1.00;;;;;;;12.84;60.52;97042.34;5091141;28;20282;-79
2022/09/22 01:50:22;;;;;;;1.33;1.23;;;;;;;12.66;60.84;97040.75;5108112;28;20196;-77
2022/09/22 01:53:05;;;;;;;1.43;1.10;;;;;;;12.61;61.84;97047.94;5093014;28;20189;-81
2022/09/22 01:55:39;;;;;;;1.37;1.20;;;;;;;12.55;62.60;97053.44;5078458;28;20212;-80
2022/09/22 01:58:24;;;;;;;1.97;1.73;;;;;;;12.52;62.64;97056.22;5094195;28;20232;-77
2022/09/22 02:01:07;;;;;;;1.30;1.20;;;;;;;12.56;62.56;97056.91;5113610;28;20554;-78
2022/09/22 02:03:49;;;;;;;1.17;0.97;;;;;;;12.59;61.99;97051.56;5113791;28;20692;-78
2022/09/22 02:06:41;;;;;;;1.93;1.20;;;;;;;12.70;62.25;97047.44;5111768;28;20201;-77
2022/09/22 02:09:17;;;;;;;1.10;0.90;;;;;;;12.50;62.77;97032.09;5094032;28;20268;-77
2022/09/22 02:11:44;;;;;;;1.20;1.10;;;;;;;12.62;61.81;97041.81;5112317;28;20190;-78
2022/09/22 02:14:11;;;;;;;1.10;1.00;;;;;;;12.52;62.10;97038.06;5110502;28;20187;-79
2022/09/22 02:16:38;;;;;;;1.10;1.00;;;;;;;12.56;62.56;97046.50;5110529;28;20186;-79
2022/09/22 02:19:22;;;;;;;1.30;1.20;;;;;;;12.55;62.27;97035.28;5110400;28;20335;-79
2022/09/22 02:21:49;;;;;;;1.23;1.13;;;;;;;12.42;62.50;97044.66;5110776;28;20238;-77
2022/09/22 02:24:37;;;;;;;1.10;0.90;;;;;;;12.38;63.10;97040.53;5110699;28;20187;-79
2022/09/22 02:27:26;;;;;;;1.40;1.20;;;;;;;12.18;62.85;97038.13;5110470;28;20198;-79
2022/09/22 02:30:04;;;;;;;1.13;1.10;;;;;;;12.19;63.48;97032.03;5110137;28;20300;-74
2022/09/22 02:32:34;;;;;;;1.20;1.10;;;;;;;12.23;62.95;97028.34;5110166;28;20186;-80
2022/09/22 02:35:02;;;;;;;1.27;1.10;;;;;;;12.12;63.38;97023.72;5110233;28;20186;-75
2022/09/22 02:37:38;;;;;;;1.27;1.17;;;;;;;12.11;63.41;97026.41;5110268;28;20194;-75
2022/09/22 02:40:39;;;;;;;2.40;1.33;;;;;;;12.25;62.91;97029.13;5109809;28;20218;-75
2022/09/22 02:43:09;;;;;;;2.00;1.30;;;;;;;12.15;63.13;97026.19;5109538;28;20234;-76
2022/09/22 02:45:51;;;;;;;1.50;1.20;;;;;;;12.17;63.54;97036.47;5091623;28;20187;-76
2022/09/22 02:48:22;;;;;;;2.50;1.77;;;;;;;12.11;63.22;97023.81;5109622;28;20283;-74
2022/09/22 02:50:51;;;;;;;2.83;1.40;;;;;;;12.00;63.11;97024.38;5109717;28;20192;-76
2022/09/22 02:53:18;;;;;;;1.50;1.10;;;;;;;12.00;64.04;97029.56;5091428;28;20186;-75
2022/09/22 02:55:46;;;;;;;1.87;1.20;;;;;;;11.84;64.37;97036.44;5109563;28;20585;-76
2022/09/22 02:58:15;;;;;;;1.57;1.27;;;;;;;11.61;64.37;97018.56;5109490;28;20205;-77
2022/09/22 03:00:44;;;;;;;1.80;1.20;;;;;;;11.61;64.96;97022.91;5109894;28;20214;-77
2022/09/22 03:03:11;;;;;;;1.20;1.10;;;;;;;11.54;65.09;97030.16;5111051;28;20616;-78
2022/09/22 03:05:38;;;;;;;1.10;1.10;;;;;;;11.62;65.28;97022.00;5112368;28;20732;-79
2022/09/22 03:08:05;;;;;;;3.93;1.30;;;;;;;11.76;64.93;97009.22;5110438;28;20187;-80
2022/09/22 03:10:33;;;;;;;1.50;1.40;;;;;;;11.86;64.64;97025.97;5074171;28;20719;-80
2022/09/22 03:13:00;;;;;;;1.67;1.47;;;;;;;11.96;64.85;97019.41;5109501;28;20277;-75
2022/09/22 03:15:44;;;;;;;1.50;1.20;;;;;;;11.81;65.36;97022.81;5109374;28;20627;-80
2022/09/22 03:18:12;;;;;;;1.30;1.20;;;;;;;11.85;65.18;97013.94;5109265;28;20217;-80
2022/09/22 03:20:39;;;;;;;1.50;1.37;;;;;;;11.86;64.94;97024.22;5112544;28;20545;-79
2022/09/22 03:23:09;;;;;;;1.40;1.30;;;;;;;11.82;65.70;97034.84;5109739;28;20193;-79
2022/09/22 03:25:36;;;;;;;1.33;1.23;;;;;;;11.75;65.24;97039.50;5110919;28;20212;-79
2022/09/22 03:28:03;;;;;;;1.20;1.10;;;;;;;11.60;65.92;97042.00;5109268;28;20192;-74
2022/09/22 03:30:30;;;;;;;2.03;1.43;;;;;;;11.46;65.70;97022.75;5090822;28;20230;-75
2022/09/22 03:32:57;;;;;;;1.37;1.20;;;;;;;11.51;66.69;97040.69;5109392;28;20245;-80
2022/09/22 03:35:25;;;;;;;1.03;0.93;;;;;;;11.76;66.14;97040.34;5109293;28;20185;-78
2022/09/22 03:37:51;;;;;;;1.20;1.10;;;;;;;11.94;64.94;97040.25;5101619;28;21055;-76
2022/09/22 03:40:20;;;;;;;1.03;1.00;;;;;;;12.02;64.88;97026.88;5091716;28;20215;-75
2022/09/22 03:42:47;;;;;;;1.80;1.37;;;;;;;12.16;64.78;97047.75;5089217;28;20226;-78
2022/09/22 03:45:14;;;;;;;1.67;1.40;;;;;;;12.14;64.15;97037.47;5097832;28;20528;-76
2022/09/22 03:47:41;;;;;;;1.77;1.37;;;;;;;12.02;64.43;97035.50;5088413;28;20234;-76
2022/09/22 03:50:09;;;;;;;1.93;1.30;;;;;;;11.96;64.81;97053.13;5069994;28;20642;-76
2022/09/22 03:52:36;;;;;;;1.30;1.20;;;;;;;11.83;65.34;97037.34;5102836;28;20192;-75
2022/09/22 03:55:03;;;;;;;1.40;1.30;;;;;;;11.87;65.85;97043.25;5122700;28;20201;-77
2022/09/22 03:57:30;;;;;;;1.37;1.20;;;;;;;11.88;65.69;97050.09;5128868;28;20190;-75
2022/09/22 03:59:57;;;;;;;2.20;2.07;;;;;;;11.95;66.01;97052.28;5130053;28;20221;-78
2022/09/22 04:02:25;;;;;;;3.73;1.80;;;;;;;11.96;65.79;97047.94;5115876;28;20186;-79
2022/09/22 04:04:51;;;;;;;1.47;1.37;;;;;;;11.93;65.18;97050.72;5109191;28;20190;-76
2022/09/22 04:07:18;;;;;;;1.30;1.20;;;;;;;11.65;66.07;97046.03;5108534;28;20263;-79
2022/09/22 04:09:45;;;;;;;1.90;1.20;;;;;;;11.60;66.09;97047.19;5090503;28;20208;-78
2022/09/22 04:12:12;;;;;;;1.37;1.27;;;;;;;11.63;66.43;97059.97;5108984;28;20187;-79
2022/09/22 04:14:39;;;;;;;3.83;1.27;;;;;;;11.70;66.28;97058.81;5112027;28;20192;-77
2022/09/22 04:17:07;;;;;;;1.97;1.43;;;;;;;11.70;66.73;97061.41;5108534;28;20186;-80
2022/09/22 04:19:35;;;;;;;2.00;1.53;;;;;;;11.74;65.73;97058.59;5093260;28;20312;-79
2022/09/22 04:22:02;;;;;;;3.00;1.60;;;;;;;11.55;66.23;97026.66;5088043;28;20285;-78
2022/09/22 04:24:30;;;;;;;3.03;1.27;;;;;;;11.77;65.58;97073.97;5097842;28;20240;-76
2022/09/22 04:26:57;;;;;;;3.90;1.40;;;;;;;11.86;66.13;97067.50;5107942;28;20180;-80
2022/09/22 04:29:44;;;;;;;1.30;1.20;;;;;;;12.02;65.40;97071.00;5107713;28;20196;-80
2022/09/22 04:32:11;;;;;;;1.70;1.60;;;;;;;12.17;65.30;97072.81;5088887;28;20223;-79
2022/09/22 04:34:38;;;;;;;2.00;1.80;;;;;;;12.31;65.17;97072.94;5104001;28;20213;-78
2022/09/22 04:37:05;;;;;;;5.07;3.60;;;;;;;12.50;63.88;97081.44;5090154;28;20226;-80
2022/09/22 04:39:32;;;;;;;2.37;1.93;;;;;;;12.50;63.44;97063.28;5108061;28;20312;-79
2022/09/22 04:41:59;;;;;;;1.77;1.67;;;;;;;12.82;63.26;97083.16;5107075;28;20220;-79
2022/09/22 04:44:26;;;;;;;4.47;1.80;;;;;;;13.05;62.93;97079.34;5094929;28;20642;-79
2022/09/22 04:46:55;;;;;;;2.10;1.63;;;;;;;13.00;61.42;97074.34;5096833;28;20592;-78
2022/09/22 04:49:23;;;;;;;1.67;1.50;;;;;;;13.07;60.12;97067.09;5087344;28;20319;-79
2022/09/22 04:51:49;;;;;;;2.80;1.90;;;;;;;13.08;60.68;97080.00;5103199;28;20586;-82
2022/09/22 04:54:16;;;;;;;5.63;1.60;;;;;;;13.15;60.54;97079.69;5106223;28;20677;-81
2022/09/22 04:56:43;;;;;;;3.37;1.60;;;;;;;13.00;60.21;97078.75;5108231;28;20196;-80
2022/09/22 04:59:10;;;;;;;3.10;1.60;;;;;;;13.02;60.63;97077.72;5108319;28;20239;-80
2022/09/22 05:01:37;;;;;;;2.33;2.13;;;;;;;12.91;61.35;97080.06;5089199;28;20655;-82
2022/09/22 05:04:05;;;;;;;2.87;1.77;;;;;;;12.81;61.97;97073.69;5107627;28;20215;-81
2022/09/22 05:06:31;;;;;;;2.17;1.97;;;;;;;13.03;62.27;97078.56;5089254;28;20190;-81
2022/09/22 05:08:58;;;;;;;2.83;2.10;;;;;;;13.21;61.19;97079.34;5107626;28;20180;-81
2022/09/22 05:11:50;;;;;;;2.57;1.53;;;;;;;13.17;61.39;97073.47;5109207;28;20197;-83
2022/09/22 05:14:17;;;;;;;1.40;1.30;;;;;;;13.31;60.96;97081.38;5107832;28;20273;-79
2022/09/22 05:16:51;;;;;;;2.30;1.37;;;;;;;13.44;60.95;97084.09;5088964;28;20575;-79
2022/09/22 05:19:19;;;;;;;1.50;1.10;;;;;;;13.29;60.17;97051.16;5107038;28;20215;-79
2022/09/22 05:21:47;;;;;;;1.43;1.30;;;;;;;13.51;60.00;97080.22;5107393;28;20725;-76
2022/09/22 05:24:14;;;;;;;1.43;1.30;;;;;;;13.69;59.80;97080.03;5107209;28;20263;-79
2022/09/22 05:26:41;;;;;;;3.53;1.40;;;;;;;13.96;59.07;97093.19;5085648;28;20203;-79
2022/09/22 05:29:08;;;;;;;2.37;1.30;;;;;;;13.98;59.30;97070.53;5093181;28;20815;-79
2022/09/22 05:31:35;;;;;;;2.30;1.43;;;;;;;14.02;58.51;97097.19;5103232;28;20623;-79
2022/09/22 05:34:02;;;;;;;2.40;1.50;;;;;;;13.69;59.91;97087.81;5100252;28;20843;-78
2022/09/22 05:36:29;;;;;;;1.97;1.33;;;;;;;13.74;59.00;97088.41;5086883;28;20226;-81
2022/09/22 05:38:56;;;;;;;1.63;1.10;;;;;;;13.87;58.58;97098.94;5092614;28;20191;-77
2022/09/22 05:41:23;;;;;;;2.40;1.20;;;;;;;13.87;58.34;97080.72;5097936;28;20208;-79
2022/09/22 05:43:51;;;;;;;1.83;1.50;;;;;;;14.05;58.41;97100.50;5090970;28;20188;-78
2022/09/22 05:46:17;;;;;;;1.93;1.30;;;;;;;14.15;58.21;97095.56;5072610;28;20207;-78
2022/09/22 05:48:46;;;;;;;1.17;1.07;;;;;;;14.14;57.34;97099.09;5090961;28;20192;-79
2022/09/22 05:51:12;;;;;;;1.40;1.27;;;;;;;14.10;58.00;97095.84;5090523;28;20189;-76
2022/09/22 05:53:39;;;;;;;1.30;1.20;;;;;;;14.14;57.71;97089.50;5090456;28;20320;-78
2022/09/22 05:56:06;;;;;;;1.30;1.10;;;;;;;14.16;57.62;97094.63;5073023;28;20195;-79
2022/09/22 05:58:33;;;;;;;1.70;1.20;;;;;;;14.26;57.37;97101.00;5097671;28;20188;-80
2022/09/22 06:01:00;;;;;;;1.17;1.00;;;;;;;14.26;57.00;97103.59;5111093;28;20215;-75
2022/09/22 06:03:27;;;;;;;2.60;1.17;;;;;;;14.40;56.67;97094.06;5111063;28;20183;-82
2022/09/22 06:05:54;;;;;;;1.33;1.10;;;;;;;14.41;56.73;97097.47;5110964;28;20192;-82
2022/09/22 06:08:21;;;;;;;1.50;1.40;;;;;;;14.59;56.45;97092.00;5091679;28;20284;-79
2022/09/22 06:10:50;;;;;;;1.20;1.10;;;;;;;14.82;55.55;97103.63;5110702;28;20188;-80
2022/09/22 06:13:17;;;;;;;0.93;0.93;;;;;;;15.04;54.91;97103.16;5093502;28;20191;-80
2022/09/22 06:15:47;;;;;;;1.30;1.20;;;;;;;15.00;54.83;97101.69;5110953;28;21004;-79
2022/09/22 06:18:16;;;;;;;1.20;1.00;;;;;;;14.83;55.44;97107.09;5091923;28;20251;-78
2022/09/22 06:20:50;;;;;;;2.40;1.20;;;;;;;14.80;55.13;97100.28;5092609;28;20226;-79
2022/09/22 06:23:16;;;;;;;1.10;1.00;;;;;;;14.55;56.35;97100.94;5111146;28;20223;-80
2022/09/22 06:25:43;;;;;;;1.77;1.20;;;;;;;14.61;55.66;97074.50;5109804;28;20180;-79
2022/09/22 06:28:14;;;;;;;1.80;1.00;;;;;;;14.80;55.56;97091.63;5092184;28;20222;-78
2022/09/22 06:30:42;;;;;;;1.30;1.20;;;;;;;14.89;55.33;97093.66;5110663;28;20217;-84
2022/09/22 06:33:10;;;;;;;1.40;1.30;;;;;;;15.00;55.24;97091.25;5091882;28;20598;-78
2022/09/22 06:35:41;;;;;;;2.87;1.63;;;;;;;15.25;54.82;97096.59;5109270;28;20186;-79
2022/09/22 06:38:13;;;;;;;1.10;1.00;;;;;;;14.73;54.40;97069.47;5091860;28;20184;-77
2022/09/22 06:40:41;;;;;;;1.37;1.17;;;;;;;14.61;55.00;97065.88;5090247;28;20219;-79
2022/09/22 06:43:14;;;;;;;1.30;1.20;;;;;;;14.65;55.80;97091.63;5109971;28;20281;-80
2022/09/22 06:45:41;;;;;;;2.27;1.23;;;;;;;14.66;55.79;97103.75;5109466;28;20191;-78
2022/09/22 06:48:12;;;;;;;1.10;1.00;;;;;;;14.61;55.94;97097.16;5109047;28;20195;-78
2022/09/22 06:50:39;;;;;;;3.30;1.20;;;;;;;14.72;55.14;97078.22;5109465;28;20520;-79
2022/09/22 06:53:13;;;;;;;3.30;1.20;;;;;;;14.87;55.58;97112.03;5090923;28;20192;-82
2022/09/22 06:55:42;;;;;;;2.23;1.33;;;;;;;14.78;55.16;97088.25;5091949;28;20275;-78
2022/09/22 06:58:10;;;;;;;1.87;1.30;;;;;;;14.92;54.86;97083.06;5109435;28;20187;-78
2022/09/22 07:00:41;;;;;;;2.67;1.97;;;;;;;14.88;55.04;97085.00;5108932;28;20733;-80
2022/09/22 07:03:21;;;;;;;1.30;1.17;;;;;;;14.81;55.51;97106.34;5109411;28;20211;-78
2022/09/22 07:05:56;;;;;;;1.67;1.20;;;;;;;14.72;55.15;97083.44;5109052;28;20186;-77
2022/09/22 07:08:24;;;;;;;1.30;1.20;;;;;;;14.82;55.38;97108.03;5109280;28;20271;-78
2022/09/22 07:10:56;;;;;;;2.43;1.40;;;;;;;14.72;55.81;97110.34;5110078;28;20199;-80
2022/09/22 07:13:25;;;;;;;1.47;1.10;;;;;;;14.43;56.32;97060.00;5109313;28;20298;-77
2022/09/22 07:15:54;;;;;;;1.37;1.20;;;;;;;14.77;55.83;97110.06;5091396;28;20653;-81
2022/09/22 07:18:21;;;;;;;2.27;1.20;;;;;;;15.00;55.60;97109.50;5109199;28;20670;-79
2022/09/22 07:20:50;;;;;;;1.40;1.20;;;;;;;14.91;55.24;97092.66;5109942;28;20251;-80
2022/09/22 07:23:20;;;;;;;2.73;1.20;;;;;;;15.02;55.84;97107.63;5113181;28;20199;-79
2022/09/22 07:25:55;;;;;;;1.20;1.10;;;;;;;15.17;54.05;97111.88;5111902;28;20192;-78
2022/09/22 07:28:24;;;;;;;1.50;1.40;;;;;;;15.31;54.22;97111.88;5112584;28;20183;-80
2022/09/22 07:30:52;;;;;;;1.73;1.20;;;;;;;15.30;53.83;97112.78;5109944;28;20239;-80
2022/09/22 07:33:19;;;;;;;0.90;0.90;;;;;;;15.11;53.95;97107.03;5104682;28;20283;-79
2022/09/22 07:35:46;;;;;;;1.33;1.23;;;;;;;15.00;54.55;97119.94;5095225;28;20723;-77
2022/09/22 07:38:13;;;;;;;1.17;0.97;;;;;;;14.84;54.21;97093.13;5101703;28;20286;-78
2022/09/22 07:40:52;;;;;;;1.47;1.23;;;;;;;15.21;54.24;97122.03;5108912;28;20218;-81
2022/09/22 07:43:19;;;;;;;1.10;1.00;;;;;;;15.41;53.44;97120.78;5115363;27;20222;-78
2022/09/22 07:45:54;;;;;;;1.17;1.07;;;;;;;15.48;53.19;97125.53;5118111;27;20187;-76
2022/09/22 07:51:11;;;;;;;2.13;1.13;;;;;;;15.47;52.96;97125.63;5128169;27;20229;-76
2022/09/22 07:53:44;;;;;;;4.63;1.57;;;;;;;15.46;53.35;97129.16;5101424;28;20215;-76
2022/09/22 07:56:15;;;;;;;1.60;1.43;;;;;;;15.30;53.74;97133.66;5069344;28;20219;-79
2022/09/22 07:58:53;;;;;;;1.07;1.00;;;;;;;15.20;53.67;97124.72;5088329;28;20196;-76
2022/09/22 08:01:22;;;;;;;1.33;1.20;;;;;;;15.38;53.51;97113.13;5087260;28;20230;-75
2022/09/22 08:03:51;;;;;;;1.90;1.20;;;;;;;15.43;53.34;97118.94;5086093;28;20644;-75
2022/09/22 08:06:19;;;;;;;3.97;1.37;;;;;;;15.67;52.79;97129.56;5087306;28;20192;-76
2022/09/22 08:08:54;;;;;;;1.30;1.20;;;;;;;15.44;53.50;97137.09;5087722;28;20628;-75
2022/09/22 08:11:26;;;;;;;0.93;0.90;;;;;;;15.37;52.99;97142.78;5086001;28;20199;-77
2022/09/22 08:14:01;;;;;;;2.97;1.00;;;;;;;15.27;53.14;97146.91;5069371;28;20196;-76
2022/09/22 08:16:31;;;;;;;1.33;1.10;;;;;;;15.21;53.04;97116.81;5087726;28;20726;-77
2022/09/22 08:19:01;;;;;;;2.77;1.20;;;;;;;15.28;53.24;97153.78;5087810;28;20219;-75
2022/09/22 08:21:34;;;;;;;2.13;1.20;;;;;;;15.21;53.04;97127.25;5087253;28;20646;-75
2022/09/22 08:24:03;;;;;;;1.30;1.20;;;;;;;15.44;52.12;97144.09;5087340;28;20203;-76
2022/09/22 08:26:31;;;;;;;1.40;1.30;;;;;;;15.37;52.68;97142.78;5087451;28;20231;-77
2022/09/22 08:28:59;;;;;;;1.33;1.23;;;;;;;15.60;52.10;97128.31;5087954;28;20200;-76
2022/09/22 08:31:26;;;;;;;1.70;1.60;;;;;;;15.88;51.41;97136.88;5088661;28;20200;-76
2022/09/22 08:33:55;;;;;;;1.73;1.37;;;;;;;15.76;51.25;97129.84;5087959;28;20191;-76
2022/09/22 08:36:26;;;;;;;1.10;1.00;;;;;;;15.71;52.04;97137.13;5087404;28;20189;-76
2022/09/22 08:38:54;;;;;;;1.00;1.00;;;;;;;15.54;51.87;97095.59;5088278;28;20185;-77
2022/09/22 08:41:38;;;;;;;3.40;1.50;;;;;;;15.86;51.89;97130.06;5070477;28;20900;-76
2022/09/22 08:44:14;;;;;;;1.40;1.30;;;;;;;15.87;50.29;97129.09;5088642;28;20196;-76
2022/09/22 08:46:58;;;;;;;1.40;1.30;;;;;;;16.03;50.31;97122.78;5089561;28;20198;-75
2022/09/22 08:52:48;;;;;;;1.87;1.40;;;;;;;16.23;49.85;97113.63;5087955;28;20227;-74
2022/09/22 08:55:21;;;;;;;1.60;1.20;;;;;;;16.08;49.62;97120.72;5070057;28;20231;-77
2022/09/22 08:58:27;;;;;;;1.40;1.30;;;;;;;16.40;48.98;97109.88;5086748;28;20194;-76
2022/09/22 09:01:29;;;;;;;1.17;1.07;;;;;;;16.45;48.48;97113.00;5003885;28;20230;-74
2022/09/22 09:04:17;;;;;;;1.17;1.07;;;;;;;16.53;47.71;97118.56;4988413;28;20206;-77
2022/09/22 09:06:54;;;;;;;1.20;1.10;;;;;;;16.57;47.52;97113.03;5057534;28;20235;-78
2022/09/22 09:09:37;;;;;;;1.23;1.13;;;;;;;16.62;47.07;97110.13;5086393;28;20192;-76
2022/09/22 09:12:25;;;;;;;1.20;1.10;;;;;;;16.45;47.77;97134.75;5080929;28;20198;-75
2022/09/22 09:15:13;;;;;;;1.33;1.20;;;;;;;16.34;46.79;97111.16;5106050;28;20674;-77
2022/09/22 09:17:43;;;;;;;1.30;1.13;;;;;;;16.36;47.41;97087.50;5106353;28;20278;-76
2022/09/22 09:20:37;;;;;;;1.40;1.10;;;;;;;16.57;47.13;97107.00;5087993;28;20690;-75
2022/09/22 09:23:16;;;;;;;1.50;1.10;;;;;;;16.67;46.63;97110.66;5099265;28;20717;-74
2022/09/22 09:25:51;;;;;;;1.20;1.10;;;;;;;16.57;47.10;97099.97;5086257;28;20194;-78
2022/09/22 09:28:20;;;;;;;1.63;1.00;;;;;;;16.46;46.83;97096.41;5086118;28;20614;-80
2022/09/22 09:31:04;;;;;;;1.47;1.17;;;;;;;16.12;47.78;97101.28;5105103;28;20203;-77
2022/09/22 09:33:58;;;;;;;3.53;1.30;;;;;;;16.30;47.88;97100.03;5101913;28;20208;-76
2022/09/22 09:36:31;;;;;;;2.27;1.43;;;;;;;16.71;47.55;97096.44;5067753;28;20189;-76
2022/09/22 09:39:22;;;;;;;1.13;1.00;;;;;;;16.94;46.83;97091.25;5086708;28;20247;-74
2022/09/22 09:41:49;;;;;;;1.30;1.20;;;;;;;16.92;45.84;97073.97;5060768;28;20286;-77
2022/09/22 09:44:32;;;;;;;1.57;1.30;;;;;;;16.95;46.51;97081.63;5086629;28;20671;-74
2022/09/22 09:47:39;;;;;;;1.20;1.10;;;;;;;16.78;46.25;97095.03;5086135;28;20676;-76
2022/09/22 09:50:08;;;;;;;1.17;0.97;;;;;;;16.74;45.93;97073.50;5086485;28;20199;-76
2022/09/22 09:52:38;;;;;;;1.20;1.10;;;;;;;16.71;46.07;97083.34;5086291;28;20283;-73
2022/09/22 09:55:19;;;;;;;1.17;1.07;;;;;;;16.79;46.63;97086.25;5086010;28;20189;-75
2022/09/22 09:58:04;;;;;;;1.40;1.30;;;;;;;17.03;46.09;97074.06;5085998;28;20195;-76
2022/09/22 10:00:33;;;;;;;0.90;0.90;;;;;;;17.21;45.16;97077.19;5086274;28;20229;-76
2022/09/22 10:03:12;;;;;;;1.20;1.00;;;;;;;16.86;45.49;97088.34;5085932;28;20188;-75
2022/09/22 10:05:40;;;;;;;1.10;0.90;;;;;;;16.74;46.51;97090.97;5085754;28;20690;-76
2022/09/22 10:08:19;;;;;;;1.53;1.10;;;;;;;16.73;46.62;97092.75;5086166;28;20683;-78
2022/09/22 10:10:47;;;;;;;1.20;1.10;;;;;;;16.97;45.61;97084.97;5085463;28;20189;-77
2022/09/22 10:13:29;;;;;;;1.33;1.20;;;;;;;16.91;44.98;97085.41;5108963;28;20206;-75
2022/09/22 10:16:24;;;;;;;1.13;1.10;;;;;;;16.92;44.71;97072.22;5130451;27;20189;-75
2022/09/22 10:18:57;;;;;;;1.30;0.90;;;;;;;17.08;44.58;97082.44;5131083;27;20643;-79
2022/09/22 10:21:27;;;;;;;2.23;1.77;;;;;;;17.02;43.72;97077.66;5132469;27;20225;-80
2022/09/22 10:23:55;;;;;;;1.93;1.70;;;;;;;17.12;43.94;97073.44;5130332;27;20277;-79
2022/09/22 10:26:30;;;;;;;1.87;1.20;;;;;;;17.07;43.08;97072.91;5112640;27;20706;-82
2022/09/22 10:29:12;;;;;;;2.20;1.57;;;;;;;17.40;43.10;97060.03;5114201;27;20201;-80
2022/09/22 10:31:41;;;;;;;1.53;1.13;;;;;;;17.34;43.28;97057.84;5114539;27;20235;-80
2022/09/22 10:34:30;;;;;;;1.07;0.97;;;;;;;17.06;42.26;97072.06;5131868;27;20270;-78
2022/09/22 10:36:59;;;;;;;1.77;0.80;;;;;;;17.35;41.40;97059.50;5131192;27;20187;-78
2022/09/22 10:39:35;;;;;;;0.83;0.80;;;;;;;17.40;41.71;97057.41;5112081;27;20638;-81
2022/09/22 10:42:13;;;;;;;2.10;1.70;;;;;;;17.36;41.79;97060.34;5111711;27;20269;-80
2022/09/22 10:44:40;;;;;;;1.30;0.93;;;;;;;17.26;42.15;97051.50;5130495;27;20690;-78
2022/09/22 10:47:30;;;;;;;2.23;1.10;;;;;;;17.30;42.11;97051.16;5130294;27;20315;-79
2022/09/22 10:50:12;;;;;;;4.60;1.50;;;;;;;17.61;40.63;97066.34;5129502;27;20192;-78
2022/09/22 10:52:50;;;;;;;0.80;0.80;;;;;;;17.82;39.65;97063.94;5106559;27;20291;-78
2022/09/22 10:55:51;;;;;;;1.10;0.90;;;;;;;17.54;41.75;97070.34;5106639;28;20682;-79
2022/09/22 10:58:26;;;;;;;1.03;0.73;;;;;;;17.58;41.06;97065.72;5088545;28;20195;-78
2022/09/22 11:01:08;;;;;;;1.23;1.13;;;;;;;17.46;41.18;97066.59;5093905;28;20260;-76
2022/09/22 11:04:01;;;;;;;1.10;1.00;;;;;;;17.20;40.89;97067.63;5109266;28;20193;-79
2022/09/22 11:13:07;;;;;;;1.00;0.90;;;;;;;16.96;41.63;97057.16;5109028;28;20659;-80
2022/09/22 11:16:04;;;;;;;1.87;1.10;;;;;;;17.19;41.28;97066.78;5109160;28;20675;-78
2022/09/22 11:18:54;;;;;;;0.93;0.93;;;;;;;16.98;41.89;97068.34;5108704;28;20204;-79
2022/09/22 11:21:39;;;;;;;0.97;0.90;;;;;;;17.27;41.07;97040.09;5108247;28;20212;-78
2022/09/22 11:24:31;;;;;;;1.13;1.07;;;;;;;17.76;39.99;97051.28;5088164;28;20200;-76
2022/09/22 11:27:35;;;;;;;1.10;1.00;;;;;;;17.51;40.24;97015.59;5086275;28;20589;-79
2022/09/22 11:30:21;;;;;;;1.20;1.10;;;;;;;17.76;40.68;97059.16;5089065;28;20550;-79
2022/09/22 11:32:58;;;;;;;1.87;0.90;;;;;;;17.49;41.59;97040.19;5089191;28;20208;-78
2022/09/22 11:35:46;;;;;;;0.90;0.90;;;;;;;17.42;42.32;97060.75;5088165;28;20189;-79
2022/09/22 11:38:26;;;;;;;1.13;1.00;;;;;;;17.32;41.67;97049.28;5070128;28;20217;-81
2022/09/22 11:41:20;;;;;;;1.20;1.10;;;;;;;17.39;40.98;97047.06;5094069;28;20219;-80
2022/09/22 11:44:15;;;;;;;1.80;1.00;;;;;;;17.30;41.88;97061.63;5087368;28;20738;-81
2022/09/22 11:46:59;;;;;;;0.90;0.90;;;;;;;16.97;42.47;97033.50;5089367;28;20280;-79
2022/09/22 11:49:39;;;;;;;1.50;1.00;;;;;;;16.99;42.57;97049.06;5085181;28;20217;-81
2022/09/22 11:52:42;;;;;;;2.07;1.10;;;;;;;16.85;43.51;97043.97;5036187;28;20219;-80
2022/09/22 11:55:36;;;;;;;1.37;1.20;;;;;;;17.04;42.77;97052.22;5088184;28;20215;-81
2022/09/22 11:58:17;;;;;;;0.90;0.90;;;;;;;17.34;39.34;97031.66;5087692;28;20181;-80
2022/09/22 12:01:03;;;;;;;1.63;0.80;;;;;;;17.44;39.60;97026.59;5087224;28;20255;-79
2022/09/22 12:03:43;;;;;;;0.83;0.80;;;;;;;17.79;38.99;97030.09;5087884;28;20184;-76
2022/09/22 12:06:16;;;;;;;1.37;0.87;;;;;;;18.22;37.39;97010.16;5086707;28;20238;-75
2022/09/22 12:08:53;;;;;;;1.17;0.90;;;;;;;18.19;36.74;97026.16;5087198;28;20282;-77
2022/09/22 12:11:23;;;;;;;0.87;0.87;;;;;;;18.41;36.46;97027.94;5095928;28;20184;-78
2022/09/22 12:13:52;;;;;;;0.90;0.83;;;;;;;18.26;36.30;97031.78;5096984;28;20572;-76
2022/09/22 12:16:24;;;;;;;0.60;0.60;;;;;;;18.06;37.18;97029.81;5110098;28;20195;-78
2022/09/22 12:19:05;;;;;;;1.10;0.80;;;;;;;17.52;38.38;97025.13;5088846;28;20193;-77